createdAt,value
2023-05-16T00:00:26.403Z,2.97
2023-05-16T00:02:53.162Z,2.97
2023-05-16T00:05:19.723Z,2.75
2023-05-16T00:07:47.575Z,3.05
2023-05-16T00:10:14.239Z,3.30
2023-05-16T00:12:40.714Z,3.08
2023-05-16T00:15:08.743Z,3.10
2023-05-16T00:17:35.676Z,2.95
2023-05-16T00:20:11.123Z,2.78
2023-05-16T00:22:37.971Z,2.97
2023-05-16T00:25:04.501Z,3.08
2023-05-16T00:27:30.902Z,3.13
2023-05-16T00:29:57.314Z,3.38
2023-05-16T00:32:23.989Z,2.70
2023-05-16T00:34:50.466Z,2.90
2023-05-16T00:37:16.849Z,3.65
2023-05-16T00:39:43.277Z,3.10
2023-05-16T00:42:09.634Z,3.08
2023-05-16T00:44:36.042Z,3.13
2023-05-16T00:47:03.750Z,3.25
2023-05-16T00:49:30.152Z,3.35
2023-05-16T00:51:57.283Z,3.47
2023-05-16T00:54:25.996Z,3.20
2023-05-16T00:56:53.034Z,3.15
2023-05-16T00:59:19.803Z,3.05
2023-05-16T01:01:47.054Z,2.72
2023-05-16T01:04:13.809Z,2.90
2023-05-16T01:06:40.276Z,3.10
2023-05-16T01:09:07.919Z,2.72
2023-05-16T01:11:38.911Z,2.80
2023-05-16T01:14:23.805Z,2.80
2023-05-16T01:16:56.514Z,2.55
2023-05-16T01:19:43.159Z,2.70
2023-05-16T01:22:19.941Z,2.67
2023-05-16T01:24:49.115Z,2.38
2023-05-16T01:27:16.164Z,2.60
2023-05-16T01:29:42.588Z,2.67
2023-05-16T01:32:09.548Z,2.38
2023-05-16T01:34:36.008Z,2.40
2023-05-16T01:37:16.822Z,2.20
2023-05-16T01:39:50.416Z,1.60
2023-05-16T01:42:19.146Z,2.10
2023-05-16T01:44:54.607Z,2.15
2023-05-16T01:47:22.726Z,2.10
2023-05-16T01:49:58.432Z,1.70
2023-05-16T01:52:29.090Z,2.00
2023-05-16T01:54:56.777Z,1.92
2023-05-16T01:57:24.929Z,2.20
2023-05-16T01:59:51.443Z,2.05
2023-05-16T02:02:19.646Z,1.88
2023-05-16T02:04:46.477Z,1.65
2023-05-16T02:07:15.021Z,1.65
2023-05-16T02:09:41.636Z,1.90
2023-05-16T02:12:08.174Z,1.55
2023-05-16T02:14:34.699Z,1.48
2023-05-16T02:17:01.245Z,1.48
2023-05-16T02:19:27.787Z,1.60
2023-05-16T02:21:54.307Z,1.52
2023-05-16T02:24:21.285Z,1.70
2023-05-16T02:26:47.692Z,1.42
2023-05-16T02:29:15.171Z,1.38
2023-05-16T02:31:42.816Z,1.40
2023-05-16T02:34:09.446Z,1.40
2023-05-16T02:36:36.199Z,1.27
2023-05-16T02:39:04.188Z,1.15
2023-05-16T02:41:31.763Z,1.30
2023-05-16T02:43:58.222Z,1.20
2023-05-16T02:46:25.843Z,1.40
2023-05-16T02:48:52.764Z,1.10
2023-05-16T02:51:20.707Z,1.10
2023-05-16T02:53:47.230Z,1.08
2023-05-16T02:56:13.753Z,1.38
2023-05-16T02:58:40.166Z,1.30
2023-05-16T03:01:06.798Z,1.20
2023-05-16T03:03:35.427Z,1.17
2023-05-16T03:06:02.019Z,1.38
2023-05-16T03:08:28.455Z,1.83
2023-05-16T03:10:54.874Z,1.38
2023-05-16T03:13:21.791Z,1.52
2023-05-16T03:15:48.236Z,0.90
2023-05-16T03:18:14.725Z,1.30
2023-05-16T03:20:41.117Z,1.85
2023-05-16T03:23:08.344Z,2.10
2023-05-16T03:25:36.340Z,2.72
2023-05-16T03:28:03.316Z,2.95
2023-05-16T03:30:29.697Z,2.55
2023-05-16T03:32:56.227Z,2.97
2023-05-16T03:35:22.832Z,3.05
2023-05-16T03:37:49.236Z,2.55
2023-05-16T03:40:15.696Z,2.03
2023-05-16T03:42:42.080Z,1.73
2023-05-16T03:45:08.841Z,1.70
2023-05-16T03:47:35.464Z,1.90
2023-05-16T03:50:01.949Z,1.95
2023-05-16T03:52:28.372Z,1.75
2023-05-16T03:54:54.801Z,1.73
2023-05-16T03:57:21.223Z,2.20
2023-05-16T03:59:47.692Z,2.03
2023-05-16T04:02:14.109Z,2.00
2023-05-16T04:04:40.696Z,1.77
2023-05-16T04:07:07.288Z,1.70
2023-05-16T04:09:33.757Z,1.75
2023-05-16T04:12:02.048Z,1.67
2023-05-16T04:14:28.507Z,1.50
2023-05-16T04:16:55.266Z,1.48
2023-05-16T04:19:21.685Z,1.60
2023-05-16T04:21:48.263Z,1.67
2023-05-16T04:24:15.020Z,1.75
2023-05-16T04:26:41.426Z,1.73
2023-05-16T04:29:08.152Z,1.80
2023-05-16T04:31:34.659Z,1.77
2023-05-16T04:34:01.521Z,2.08
2023-05-16T04:36:30.134Z,1.70
2023-05-16T04:38:57.204Z,1.67
2023-05-16T04:41:24.036Z,1.73
2023-05-16T04:43:50.726Z,1.67
2023-05-16T04:46:17.342Z,1.40
2023-05-16T04:48:43.787Z,1.27
2023-05-16T04:51:10.343Z,1.50
2023-05-16T04:53:36.754Z,1.70
2023-05-16T04:56:03.443Z,1.40
2023-05-16T04:58:29.823Z,1.42
2023-05-16T05:00:56.482Z,1.70
2023-05-16T05:03:22.879Z,1.70
2023-05-16T05:05:49.380Z,1.70
2023-05-16T05:08:16.590Z,1.77
2023-05-16T05:10:42.976Z,2.10
2023-05-16T05:13:09.505Z,1.52
2023-05-16T05:15:35.965Z,1.70
2023-05-16T05:18:02.599Z,1.95
2023-05-16T05:20:29.244Z,1.50
2023-05-16T05:22:55.651Z,1.65
2023-05-16T05:25:22.112Z,1.80
2023-05-16T05:27:48.581Z,1.67
2023-05-16T05:30:14.997Z,1.98
2023-05-16T05:32:41.680Z,2.00
2023-05-16T05:35:08.225Z,1.80
2023-05-16T05:37:34.706Z,2.25
2023-05-16T05:40:01.327Z,2.00
2023-05-16T05:42:27.710Z,2.30
2023-05-16T05:44:54.153Z,1.63
2023-05-16T05:47:20.706Z,1.77
2023-05-16T05:49:47.258Z,1.90
2023-05-16T05:52:13.753Z,2.05
2023-05-16T05:54:40.163Z,2.30
2023-05-16T05:57:06.615Z,1.90
2023-05-16T05:59:33.754Z,2.00
2023-05-16T06:02:00.475Z,1.95
2023-05-16T06:04:26.912Z,2.25
2023-05-16T06:06:53.357Z,2.13
2023-05-16T06:09:21.438Z,2.28
2023-05-16T06:11:47.839Z,2.30
2023-05-16T06:14:14.797Z,2.25
2023-05-16T06:16:41.386Z,2.60
2023-05-16T06:19:08.113Z,2.42
2023-05-16T06:21:34.855Z,1.88
2023-05-16T06:24:01.365Z,1.95
2023-05-16T06:26:28.023Z,1.92
2023-05-16T06:28:54.492Z,2.42
2023-05-16T06:31:20.936Z,2.70
2023-05-16T06:33:47.612Z,2.60
2023-05-16T06:36:13.972Z,2.17
2023-05-16T06:38:40.481Z,2.55
2023-05-16T06:41:06.931Z,2.65
2023-05-16T06:43:33.375Z,2.42
2023-05-16T06:45:59.875Z,2.20
2023-05-16T06:48:26.378Z,2.15
2023-05-16T06:50:52.912Z,2.00
2023-05-16T06:53:19.684Z,2.25
2023-05-16T06:55:46.918Z,2.33
2023-05-16T06:58:13.412Z,2.35
2023-05-16T07:00:39.963Z,2.90
2023-05-16T07:03:06.811Z,2.40
2023-05-16T07:05:33.567Z,2.65
2023-05-16T07:07:59.986Z,2.30
2023-05-16T07:10:27.372Z,2.20
2023-05-16T07:12:53.868Z,2.78
2023-05-16T07:15:20.326Z,2.70
2023-05-16T07:17:47.019Z,2.45
2023-05-16T07:20:14.862Z,2.13
2023-05-16T07:22:41.390Z,2.42
2023-05-16T07:25:12.619Z,2.53
2023-05-16T07:27:41.487Z,2.45
2023-05-16T07:30:09.711Z,2.40
2023-05-16T07:32:36.178Z,2.33
2023-05-16T07:35:02.660Z,2.35
2023-05-16T07:37:31.044Z,2.42
2023-05-16T07:39:57.728Z,2.42
2023-05-16T07:42:25.193Z,3.47
2023-05-16T07:44:51.633Z,2.67
2023-05-16T07:47:18.112Z,2.40
2023-05-16T07:49:44.684Z,2.42
2023-05-16T07:52:11.225Z,2.40
2023-05-16T07:54:37.760Z,2.53
2023-05-16T07:57:04.269Z,2.58
2023-05-16T07:59:30.926Z,2.08
2023-05-16T08:01:57.559Z,2.20
2023-05-16T08:04:24.056Z,2.45
2023-05-16T08:06:50.482Z,2.10
2023-05-16T08:09:16.916Z,2.58
2023-05-16T08:11:45.510Z,2.22
2023-05-16T08:14:12.078Z,1.73
2023-05-16T08:16:38.680Z,2.13
2023-05-16T08:19:05.210Z,2.65
2023-05-16T08:21:31.989Z,1.92
2023-05-16T08:23:58.594Z,2.20
2023-05-16T08:26:25.102Z,2.92
2023-05-16T08:28:51.586Z,2.67
2023-05-16T08:31:18.058Z,2.60
2023-05-16T08:33:44.503Z,2.20
2023-05-16T08:36:11.011Z,3.05
2023-05-16T08:38:37.443Z,2.67
2023-05-16T08:41:04.024Z,2.35
2023-05-16T08:43:30.608Z,2.92
2023-05-16T08:45:57.148Z,3.17
2023-05-16T08:48:24.090Z,2.53
2023-05-16T08:50:51.772Z,2.40
2023-05-16T08:53:21.875Z,2.38
2023-05-16T08:55:49.469Z,2.00
2023-05-16T08:58:16.406Z,1.92
2023-05-16T09:00:43.353Z,2.10
2023-05-16T09:03:09.961Z,1.77
2023-05-16T09:05:36.459Z,1.92
2023-05-16T09:08:02.959Z,1.50
2023-05-16T09:10:29.599Z,2.33
2023-05-16T09:12:56.179Z,1.80
2023-05-16T09:15:22.700Z,2.88
2023-05-16T09:17:49.442Z,1.55
2023-05-16T09:20:16.340Z,2.10
2023-05-16T09:22:53.389Z,2.20
2023-05-16T09:25:29.254Z,2.05
2023-05-16T09:27:56.928Z,2.40
2023-05-16T09:30:30.559Z,2.08
2023-05-16T09:32:57.181Z,2.55
2023-05-16T09:35:42.560Z,1.80
2023-05-16T09:38:14.003Z,2.10
2023-05-16T09:40:41.514Z,2.83
2023-05-16T09:43:08.521Z,2.47
2023-05-16T09:45:35.631Z,1.90
2023-05-16T09:48:05.865Z,1.95
2023-05-16T09:50:36.782Z,1.85
2023-05-16T09:53:03.847Z,2.05
2023-05-16T09:55:30.773Z,1.48
2023-05-16T09:57:57.369Z,2.97
2023-05-16T10:00:30.000Z,1.70
2023-05-16T10:02:57.697Z,2.00
2023-05-16T10:05:26.992Z,2.03
2023-05-16T10:07:57.376Z,2.13
2023-05-16T10:10:24.472Z,2.28
2023-05-16T10:12:51.283Z,1.98
2023-05-16T10:15:18.188Z,4.20
2023-05-16T10:17:49.099Z,1.63
2023-05-16T10:20:16.189Z,1.75
2023-05-16T10:22:46.874Z,2.33
2023-05-16T10:25:26.008Z,2.03
2023-05-16T10:27:52.993Z,2.15
2023-05-16T10:30:19.574Z,2.03
2023-05-16T10:32:46.665Z,2.05
2023-05-16T10:35:13.146Z,2.30
2023-05-16T10:37:40.152Z,1.80
2023-05-16T10:40:07.888Z,1.80
2023-05-16T10:42:34.557Z,1.42
2023-05-16T10:45:19.614Z,2.13
2023-05-16T10:47:56.440Z,2.00
2023-05-16T10:50:35.761Z,1.83
2023-05-16T10:53:29.188Z,2.45
2023-05-16T10:56:01.674Z,1.70
2023-05-16T10:58:40.043Z,1.58
2023-05-16T11:01:18.947Z,1.65
2023-05-16T11:04:08.940Z,2.42
2023-05-16T11:06:35.384Z,2.20
2023-05-16T11:09:11.074Z,2.00
2023-05-16T11:11:53.032Z,2.70
2023-05-16T11:16:48.947Z,1.83
2023-05-16T11:19:28.313Z,2.00
2023-05-16T11:22:11.811Z,2.13
2023-05-16T11:24:39.433Z,2.25
2023-05-16T11:27:06.479Z,2.05
2023-05-16T11:29:36.068Z,2.00
2023-05-16T11:32:04.018Z,1.75
2023-05-16T11:34:31.161Z,1.90
2023-05-16T11:36:57.812Z,1.70
2023-05-16T11:39:27.798Z,1.60
2023-05-16T11:41:54.369Z,2.10
2023-05-16T11:44:21.029Z,1.70
2023-05-16T11:46:47.800Z,1.73
2023-05-16T11:49:14.446Z,1.65
2023-05-16T11:51:41.365Z,1.25
2023-05-16T11:54:09.525Z,1.40
2023-05-16T11:56:36.872Z,1.38
2023-05-16T11:59:03.599Z,1.70
2023-05-16T12:01:40.248Z,1.65
2023-05-16T12:04:10.892Z,1.45
2023-05-16T12:06:37.687Z,1.38
2023-05-16T12:09:11.023Z,1.85
2023-05-16T12:11:38.441Z,1.85
2023-05-16T12:14:09.671Z,1.58
2023-05-16T12:16:37.470Z,1.80
2023-05-16T12:19:05.203Z,1.42
2023-05-16T12:21:32.340Z,1.88
2023-05-16T12:23:59.006Z,1.20
2023-05-16T12:26:30.919Z,1.67
2023-05-16T12:31:32.345Z,2.72
2023-05-16T12:33:59.600Z,2.00
2023-05-16T12:36:29.069Z,2.05
2023-05-16T12:38:55.690Z,2.00
2023-05-16T12:41:25.340Z,1.58
2023-05-16T12:43:51.936Z,2.53
2023-05-16T12:46:19.855Z,1.88
2023-05-16T12:48:48.056Z,2.28
2023-05-16T12:51:17.935Z,1.75
2023-05-16T12:53:51.727Z,2.33
2023-05-16T12:56:28.268Z,1.75
2023-05-16T12:58:54.737Z,1.52
2023-05-16T13:01:21.231Z,1.90
2023-05-16T13:03:47.785Z,2.47
2023-05-16T13:06:14.335Z,2.33
2023-05-16T13:08:41.359Z,2.17
2023-05-16T13:11:07.843Z,1.65
2023-05-16T13:13:36.243Z,1.80
2023-05-16T13:16:04.322Z,2.03
2023-05-16T13:18:31.605Z,2.17
2023-05-16T13:20:58.390Z,2.25
2023-05-16T13:23:24.797Z,1.70
2023-05-16T13:25:53.037Z,2.08
2023-05-16T13:28:19.597Z,1.73
2023-05-16T13:30:46.006Z,1.70
2023-05-16T13:33:12.594Z,2.00
2023-05-16T13:35:39.174Z,2.45
2023-05-16T13:38:08.705Z,3.15
2023-05-16T13:40:36.624Z,2.03
2023-05-16T13:43:03.539Z,2.97
2023-05-16T13:45:31.388Z,1.95
2023-05-16T13:47:57.928Z,1.38
2023-05-16T13:50:24.415Z,1.70
2023-05-16T13:52:50.881Z,2.35
2023-05-16T13:55:18.679Z,3.17
2023-05-16T13:57:45.089Z,2.05
2023-05-16T14:02:43.773Z,1.67
2023-05-16T14:05:10.645Z,1.80
2023-05-16T14:07:37.081Z,1.77
2023-05-16T14:10:04.187Z,1.75
2023-05-16T14:12:31.183Z,1.30
2023-05-16T14:14:57.650Z,1.52
2023-05-16T14:17:24.064Z,1.70
2023-05-16T14:19:50.519Z,2.28
2023-05-16T14:22:18.896Z,1.65
2023-05-16T14:24:45.340Z,1.73
2023-05-16T14:27:12.234Z,1.98
2023-05-16T14:29:38.730Z,1.90
2023-05-16T14:32:05.409Z,1.40
2023-05-16T14:34:32.770Z,1.60
2023-05-16T14:36:59.280Z,1.77
2023-05-16T14:39:27.116Z,1.58
2023-05-16T14:41:53.546Z,1.40
2023-05-16T14:44:21.731Z,1.50
2023-05-16T14:46:48.448Z,1.63
2023-05-16T14:49:15.132Z,1.60
2023-05-16T14:51:41.580Z,1.42
2023-05-16T14:54:08.521Z,1.42
2023-05-16T14:56:34.980Z,1.55
2023-05-16T14:59:01.724Z,1.80
2023-05-16T15:01:28.239Z,1.77
2023-05-16T15:03:56.322Z,1.48
2023-05-16T15:06:23.704Z,1.65
2023-05-16T15:08:50.835Z,1.30
2023-05-16T15:11:17.487Z,1.60
2023-05-16T15:13:43.966Z,1.70
2023-05-16T15:16:10.622Z,1.80
2023-05-16T15:18:37.136Z,1.90
2023-05-16T15:21:03.741Z,2.03
2023-05-16T15:23:30.208Z,1.80
2023-05-16T15:25:56.761Z,1.40
2023-05-16T15:28:23.231Z,1.58
2023-05-16T15:30:50.952Z,1.92
2023-05-16T15:33:17.373Z,1.48
2023-05-16T15:35:44.109Z,1.52
2023-05-16T15:38:10.724Z,1.52
2023-05-16T15:40:37.208Z,1.80
2023-05-16T15:43:03.961Z,1.45
2023-05-16T15:45:31.007Z,1.33
2023-05-16T15:47:57.613Z,2.08
2023-05-16T15:50:24.258Z,1.63
2023-05-16T15:52:51.014Z,1.52
2023-05-16T15:55:17.520Z,1.90
2023-05-16T15:57:44.149Z,1.65
2023-05-16T16:00:11.204Z,1.63
2023-05-16T16:02:37.749Z,2.45
2023-05-16T16:05:04.326Z,1.42
2023-05-16T16:07:30.812Z,1.65
2023-05-16T16:09:59.592Z,1.50
2023-05-16T16:12:26.128Z,1.58
2023-05-16T16:14:52.690Z,1.60
2023-05-16T16:17:19.208Z,1.60
2023-05-16T16:19:45.709Z,1.30
2023-05-16T16:22:12.121Z,1.70
2023-05-16T16:24:38.564Z,1.60
2023-05-16T16:27:05.104Z,1.63
2023-05-16T16:29:31.598Z,1.50
2023-05-16T16:31:58.799Z,1.67
2023-05-16T16:34:25.332Z,1.48
2023-05-16T16:36:51.822Z,1.48
2023-05-16T16:39:18.265Z,1.83
2023-05-16T16:41:44.817Z,1.08
2023-05-16T16:44:11.923Z,1.48
2023-05-16T16:46:38.650Z,1.98
2023-05-16T16:49:05.515Z,1.30
2023-05-16T16:51:33.283Z,1.65
2023-05-16T16:53:59.865Z,1.80
2023-05-16T16:56:28.091Z,1.70
2023-05-16T16:58:54.599Z,1.52
2023-05-16T17:01:21.741Z,1.65
2023-05-16T17:03:48.220Z,2.00
2023-05-16T17:06:14.701Z,1.92
2023-05-16T17:08:41.150Z,1.70
2023-05-16T17:11:07.852Z,2.05
2023-05-16T17:13:37.487Z,1.55
2023-05-16T17:16:04.341Z,1.73
2023-05-16T17:18:33.818Z,1.48
2023-05-16T17:21:01.177Z,1.58
2023-05-16T17:23:27.651Z,1.48
2023-05-16T17:25:54.121Z,1.48
2023-05-16T17:28:20.586Z,1.50
2023-05-16T17:30:47.095Z,1.25
2023-05-16T17:33:14.233Z,1.40
2023-05-16T17:35:41.114Z,1.70
2023-05-16T17:38:07.578Z,1.67
2023-05-16T17:40:34.048Z,1.65
2023-05-16T17:43:00.501Z,1.58
2023-05-16T17:45:27.410Z,1.63
2023-05-16T17:47:54.201Z,1.42
2023-05-16T17:50:21.886Z,2.33
2023-05-16T17:52:48.449Z,2.30
2023-05-16T17:55:14.958Z,2.08
2023-05-16T17:57:44.254Z,2.20
2023-05-16T18:00:11.452Z,2.00
2023-05-16T18:02:38.719Z,2.08
2023-05-16T18:05:05.616Z,1.50
2023-05-16T18:07:32.284Z,2.30
2023-05-16T18:09:59.046Z,1.67
2023-05-16T18:12:25.596Z,1.95
2023-05-16T18:14:52.188Z,2.05
2023-05-16T18:17:18.682Z,2.13
2023-05-16T18:19:45.290Z,2.38
2023-05-16T18:22:13.215Z,1.90
2023-05-16T18:24:40.103Z,1.67
2023-05-16T18:27:06.589Z,1.73
2023-05-16T18:29:33.042Z,1.80
2023-05-16T18:32:00.093Z,2.20
2023-05-16T18:34:26.620Z,2.10
2023-05-16T18:36:53.048Z,2.45
2023-05-16T18:39:20.470Z,2.28
2023-05-16T18:41:48.378Z,1.90
2023-05-16T18:44:17.360Z,2.25
2023-05-16T18:46:47.113Z,1.65
2023-05-16T18:49:13.904Z,2.45
2023-05-16T18:51:40.561Z,3.42
2023-05-16T18:54:07.295Z,2.97
2023-05-16T18:56:33.896Z,2.92
2023-05-16T18:59:00.606Z,2.25
2023-05-16T19:01:27.133Z,2.40
2023-05-16T19:03:53.819Z,2.42
2023-05-16T19:06:20.397Z,2.10
2023-05-16T19:08:48.338Z,2.08
2023-05-16T19:11:15.970Z,2.50
2023-05-16T19:13:44.761Z,1.55
2023-05-16T19:16:11.244Z,1.77
2023-05-16T19:18:38.234Z,1.92
2023-05-16T19:21:05.122Z,1.85
2023-05-16T19:23:31.857Z,2.05
2023-05-16T19:25:58.347Z,2.03
2023-05-16T19:28:24.840Z,1.83
2023-05-16T19:30:51.390Z,2.42
2023-05-16T19:33:17.932Z,2.28
2023-05-16T19:35:44.362Z,2.45
2023-05-16T19:38:10.879Z,2.22
2023-05-16T19:40:37.347Z,2.42
2023-05-16T19:43:03.829Z,2.13
2023-05-16T19:45:30.666Z,2.42
2023-05-16T19:47:57.393Z,2.30
2023-05-16T19:50:23.923Z,3.03
2023-05-16T19:52:50.501Z,3.28
2023-05-16T19:55:16.937Z,2.65
2023-05-16T19:57:43.426Z,2.40
2023-05-16T20:00:10.506Z,3.03
2023-05-16T20:02:40.007Z,2.40
2023-05-16T20:05:06.911Z,2.38
2023-05-16T20:07:33.435Z,2.55
2023-05-16T20:09:59.888Z,3.10
2023-05-16T20:12:26.352Z,2.58
2023-05-16T20:14:52.917Z,2.72
2023-05-16T20:17:21.077Z,2.42
2023-05-16T20:19:47.573Z,2.70
2023-05-16T20:22:14.073Z,2.25
2023-05-16T20:24:40.604Z,2.28
2023-05-16T20:27:07.085Z,3.15
2023-05-16T20:29:34.027Z,3.60
2023-05-16T20:32:00.928Z,4.93
2023-05-16T20:34:28.011Z,4.10
2023-05-16T20:36:54.500Z,3.20
2023-05-16T20:39:21.040Z,3.20
2023-05-16T20:41:47.635Z,2.40
2023-05-16T20:44:15.326Z,2.25
2023-05-16T20:46:43.236Z,2.10
2023-05-16T20:49:09.885Z,2.05
2023-05-16T20:51:36.390Z,2.13
2023-05-16T20:54:02.866Z,1.95
2023-05-16T20:56:29.368Z,1.67
2023-05-16T20:58:55.800Z,2.13
2023-05-16T21:01:22.380Z,2.28
2023-05-16T21:03:48.882Z,2.75
2023-05-16T21:06:15.432Z,2.63
2023-05-16T21:08:41.846Z,2.80
2023-05-16T21:11:08.318Z,2.70
2023-05-16T21:13:34.730Z,2.30
2023-05-16T21:16:01.165Z,2.30
2023-05-16T21:18:27.708Z,2.20
2023-05-16T21:20:54.180Z,2.38
2023-05-16T21:23:20.881Z,2.53
2023-05-16T21:25:47.308Z,2.70
2023-05-16T21:28:13.698Z,2.38
2023-05-16T21:30:40.285Z,2.20
2023-05-16T21:33:06.855Z,2.53
2023-05-16T21:35:33.696Z,2.47
2023-05-16T21:38:00.257Z,2.30
2023-05-16T21:40:28.759Z,2.95
2023-05-16T21:42:55.188Z,2.95
2023-05-16T21:45:21.731Z,3.42
2023-05-16T21:47:48.248Z,3.25
2023-05-16T21:50:14.970Z,3.47
2023-05-16T21:52:42.029Z,3.10
2023-05-16T21:55:08.832Z,3.97
2023-05-16T21:57:35.477Z,3.10
2023-05-16T22:00:06.630Z,3.30
2023-05-16T22:02:33.481Z,2.90
2023-05-16T22:05:00.077Z,2.55
2023-05-16T22:07:29.299Z,2.85
2023-05-16T22:09:56.298Z,2.63
2023-05-16T22:12:23.948Z,2.47
2023-05-16T22:14:50.862Z,2.60
2023-05-16T22:17:19.257Z,2.53
2023-05-16T22:19:46.377Z,2.40
2023-05-16T22:22:13.139Z,2.53
2023-05-16T22:24:39.686Z,2.25
2023-05-16T22:27:06.258Z,2.10
2023-05-16T22:29:37.982Z,2.72
2023-05-16T22:32:08.371Z,2.20
2023-05-16T22:34:40.819Z,2.35
2023-05-16T22:37:10.135Z,2.30
2023-05-16T22:39:36.893Z,2.30
2023-05-16T22:42:03.741Z,2.25
2023-05-16T22:44:30.318Z,2.95
2023-05-16T22:46:56.754Z,2.03
2023-05-16T22:49:23.278Z,2.83
2023-05-16T22:51:50.038Z,2.53
2023-05-16T22:54:16.699Z,2.20
2023-05-16T22:56:43.235Z,2.28
2023-05-16T22:59:09.652Z,2.58
2023-05-16T23:01:36.202Z,2.35
2023-05-16T23:04:02.744Z,2.45
2023-05-16T23:06:29.289Z,2.33
2023-05-16T23:08:55.719Z,2.40
2023-05-16T23:11:22.576Z,2.65
2023-05-16T23:13:49.081Z,2.25
2023-05-16T23:16:15.671Z,2.70
2023-05-16T23:18:42.193Z,2.50
2023-05-16T23:21:08.714Z,2.80
2023-05-16T23:23:35.309Z,2.67
2023-05-16T23:26:01.753Z,2.28
2023-05-16T23:28:28.168Z,2.45
2023-05-16T23:30:54.646Z,2.42
2023-05-16T23:33:21.097Z,2.50
2023-05-16T23:35:47.579Z,2.30
2023-05-16T23:38:13.984Z,2.45
2023-05-16T23:40:40.483Z,2.25
2023-05-16T23:43:06.938Z,2.13
2023-05-16T23:45:33.399Z,2.33
2023-05-16T23:47:59.934Z,2.50
2023-05-16T23:50:26.417Z,2.58
2023-05-16T23:52:52.865Z,2.17
2023-05-16T23:55:20.398Z,2.53
2023-05-16T23:57:46.884Z,1.98
